ZBAA METAR and TAF | Updated Today

ZBAA METAR

Beijing Capital International Airport

Observation time: 24 min. ago

ZBAA 200730Z 18003MPS 150V240 CAVOK 33/11 Q1006 NOSIG

Need help? Read our tutorial on how to read METARs or read the parsed version below.

Beijing Capital International Airport (ZBAA) METAR

  • Weather conditions on Fri, 20 May 2022 07:30:00 +0000 (24 min. ago):
  • Present conditions: Dry
  • Clouds: Clear skies
  • Visibility: Greater than 10 km
  • Wind: 180 degrees at 3 knots
  • Temperature: 33 celsius
  • Dew point: 11 celsius
  • Pressure: 1006 millibars
  • Remarks: None


Useful to know...

ZBAA TAF

Beijing Capital International Airport

TAF ZBAA 200301Z 2006/2106 18004MPS CAVOK TX35/2106Z TN17/2021Z
Observation time: 4:53 hr. ago
Need help? Read our tutorial on how to read TAFs or read the parsed version below.

Parsed version of TAF for Beijing Capital International Airport (ZBAA)

  • From 20 May at 06:00 UTC, to day 21 of the month at 06:00 UTC
  • Visibility: Greater than 10 km
  • Wind: 180 degrees at 4

Airports near ZBAA

ZBAD Weather
Region: Beijing

Beijing Daxing International Airport

Not found in our database